sensor_id;sensor_type;location;lat;lon;timestamp;P1;P2;P0
46591;PMS6003;32314;48.748;9.656;2023-04-03T00:00:07;1.00;1.00;0.75
46591;PMS6003;32314;48.748;9.656;2023-04-03T00:02:54;1.00;1.00;1.00
46591;PMS6003;32314;48.748;9.656;2023-04-03T00:05:39;1.00;1.00;1.00
46591;PMS6003;32314;48.748;9.656;2023-04-03T00:08:25;0.75;0.75;0.00
46591;PMS6003;32314;48.748;9.656;2023-04-03T00:11:11;0.00;0.00;0.00
46591;PMS6003;32314;48.748;9.656;2023-04-03T00:13:57;1.00;1.00;1.00
46591;PMS6003;32314;48.748;9.656;2023-04-03T00:16:43;3.00;3.00;3.00
46591;PMS6003;32314;48.748;9.656;2023-04-03T00:19:29;1.00;1.00;1.00
46591;PMS6003;32314;48.748;9.656;2023-04-03T00:22:15;3.00;1.00;0.75
46591;PMS6003;32314;48.748;9.656;2023-04-03T00:25:01;4.00;2.00;1.00
46591;PMS6003;32314;48.748;9.656;2023-04-03T00:27:46;2.00;2.00;1.00
46591;PMS6003;32314;48.748;9.656;2023-04-03T00:30:32;1.00;1.00;0.75
46591;PMS6003;32314;48.748;9.656;2023-04-03T00:33:18;3.75;2.00;1.00
46591;PMS6003;32314;48.748;9.656;2023-04-03T00:36:07;0.00;0.00;0.00
46591;PMS6003;32314;48.748;9.656;2023-04-03T00:38:54;1.00;1.00;0.00
46591;PMS6003;32314;48.748;9.656;2023-04-03T00:41:40;2.50;2.50;1.00
46591;PMS6003;32314;48.748;9.656;2023-04-03T00:47:38;2.50;2.50;1.00
46591;PMS6003;32314;48.748;9.656;2023-04-03T00:50:27;2.00;2.00;1.50
46591;PMS6003;32314;48.748;9.656;2023-04-03T00:53:16;1.00;1.00;1.00
46591;PMS6003;32314;48.748;9.656;2023-04-03T00:56:08;1.00;1.00;1.00
46591;PMS6003;32314;48.748;9.656;2023-04-03T00:59:15;1.00;1.00;1.00
46591;PMS6003;32314;48.748;9.656;2023-04-03T01:02:03;3.75;1.00;1.00
46591;PMS6003;32314;48.748;9.656;2023-04-03T01:04:50;1.00;1.00;1.00
46591;PMS6003;32314;48.748;9.656;2023-04-03T01:07:35;3.00;3.00;1.00
46591;PMS6003;32314;48.748;9.656;2023-04-03T01:10:22;1.00;1.00;1.00
46591;PMS6003;32314;48.748;9.656;2023-04-03T01:13:19;2.00;2.00;1.50
46591;PMS6003;32314;48.748;9.656;2023-04-03T01:16:10;1.00;1.00;1.00
46591;PMS6003;32314;48.748;9.656;2023-04-03T01:18:56;1.00;1.00;1.00
46591;PMS6003;32314;48.748;9.656;2023-04-03T01:22:05;3.00;3.00;3.00
46591;PMS6003;32314;48.748;9.656;2023-04-03T01:24:52;2.50;1.00;1.00
46591;PMS6003;32314;48.748;9.656;2023-04-03T01:27:39;0.00;0.00;0.00
46591;PMS6003;32314;48.748;9.656;2023-04-03T01:30:26;4.00;1.50;1.50
46591;PMS6003;32314;48.748;9.656;2023-04-03T01:33:16;6.00;1.00;1.00
46591;PMS6003;32314;48.748;9.656;2023-04-03T01:36:03;1.50;1.50;1.00
46591;PMS6003;32314;48.748;9.656;2023-04-03T01:38:50;0.50;0.50;0.50
46591;PMS6003;32314;48.748;9.656;2023-04-03T01:41:37;1.00;1.00;0.50
46591;PMS6003;32314;48.748;9.656;2023-04-03T01:44:37;3.75;3.75;3.00
46591;PMS6003;32314;48.748;9.656;2023-04-03T01:47:23;1.50;1.00;1.00
46591;PMS6003;32314;48.748;9.656;2023-04-03T01:50:09;1.00;1.00;0.75
46591;PMS6003;32314;48.748;9.656;2023-04-03T01:52:56;1.00;1.00;1.00
46591;PMS6003;32314;48.748;9.656;2023-04-03T01:55:42;0.00;0.00;0.00
46591;PMS6003;32314;48.748;9.656;2023-04-03T01:58:28;1.00;1.00;1.00
46591;PMS6003;32314;48.748;9.656;2023-04-03T02:01:14;3.25;3.25;3.00
46591;PMS6003;32314;48.748;9.656;2023-04-03T02:04:00;2.50;2.50;1.00
46591;PMS6003;32314;48.748;9.656;2023-04-03T02:06:46;1.00;1.00;0.75
46591;PMS6003;32314;48.748;9.656;2023-04-03T02:09:32;1.50;1.50;1.00
46591;PMS6003;32314;48.748;9.656;2023-04-03T02:12:18;2.00;1.50;1.00
46591;PMS6003;32314;48.748;9.656;2023-04-03T02:15:04;1.00;1.00;0.25
46591;PMS6003;32314;48.748;9.656;2023-04-03T02:17:50;1.00;1.00;1.00
46591;PMS6003;32314;48.748;9.656;2023-04-03T02:20:37;1.00;1.00;1.00
46591;PMS6003;32314;48.748;9.656;2023-04-03T02:23:24;4.00;4.00;3.00
46591;PMS6003;32314;48.748;9.656;2023-04-03T02:26:11;1.00;1.00;1.00
46591;PMS6003;32314;48.748;9.656;2023-04-03T02:28:58;2.00;2.00;1.00
46591;PMS6003;32314;48.748;9.656;2023-04-03T02:31:44;2.50;2.50;2.00
46591;PMS6003;32314;48.748;9.656;2023-04-03T02:34:30;0.75;0.75;0.75
46591;PMS6003;32314;48.748;9.656;2023-04-03T02:37:17;3.00;3.00;1.00
46591;PMS6003;32314;48.748;9.656;2023-04-03T02:40:05;1.00;1.00;1.00
46591;PMS6003;32314;48.748;9.656;2023-04-03T02:42:52;2.00;2.00;1.00
46591;PMS6003;32314;48.748;9.656;2023-04-03T02:45:39;0.75;0.75;0.75
46591;PMS6003;32314;48.748;9.656;2023-04-03T02:48:25;1.00;1.00;1.00
46591;PMS6003;32314;48.748;9.656;2023-04-03T02:51:13;1.00;1.00;1.00
46591;PMS6003;32314;48.748;9.656;2023-04-03T02:53:59;3.00;3.00;1.00
46591;PMS6003;32314;48.748;9.656;2023-04-03T02:56:49;2.00;2.00;1.00
46591;PMS6003;32314;48.748;9.656;2023-04-03T02:59:36;1.00;1.00;1.00
46591;PMS6003;32314;48.748;9.656;2023-04-03T03:02:22;0.00;0.00;0.00
46591;PMS6003;32314;48.748;9.656;2023-04-03T03:05:08;3.00;0.75;0.75
46591;PMS6003;32314;48.748;9.656;2023-04-03T03:07:53;1.00;1.00;1.00
46591;PMS6003;32314;48.748;9.656;2023-04-03T03:10:40;0.50;0.50;0.50
46591;PMS6003;32314;48.748;9.656;2023-04-03T03:13:26;1.50;1.00;0.50
46591;PMS6003;32314;48.748;9.656;2023-04-03T03:16:12;1.00;1.00;1.00
46591;PMS6003;32314;48.748;9.656;2023-04-03T03:18:58;1.00;1.00;1.00
46591;PMS6003;32314;48.748;9.656;2023-04-03T03:21:44;2.00;2.00;1.00
46591;PMS6003;32314;48.748;9.656;2023-04-03T03:24:30;2.00;2.00;1.50
46591;PMS6003;32314;48.748;9.656;2023-04-03T03:27:16;1.75;0.00;0.00
46591;PMS6003;32314;48.748;9.656;2023-04-03T03:30:01;3.75;3.00;2.50
46591;PMS6003;32314;48.748;9.656;2023-04-03T03:32:48;2.75;0.25;0.00
46591;PMS6003;32314;48.748;9.656;2023-04-03T03:35:34;0.75;0.75;0.75
46591;PMS6003;32314;48.748;9.656;2023-04-03T03:38:20;2.50;2.50;1.50
46591;PMS6003;32314;48.748;9.656;2023-04-03T03:41:06;0.75;0.75;0.75
46591;PMS6003;32314;48.748;9.656;2023-04-03T03:43:53;1.00;1.00;1.00
46591;PMS6003;32314;48.748;9.656;2023-04-03T03:46:39;3.00;3.00;1.00
46591;PMS6003;32314;48.748;9.656;2023-04-03T03:49:25;1.00;1.00;0.50
46591;PMS6003;32314;48.748;9.656;2023-04-03T03:52:11;2.25;0.00;0.00
46591;PMS6003;32314;48.748;9.656;2023-04-03T03:54:57;1.00;1.00;1.00
46591;PMS6003;32314;48.748;9.656;2023-04-03T03:57:43;2.00;2.00;1.00
46591;PMS6003;32314;48.748;9.656;2023-04-03T04:00:30;0.00;0.00;0.00
46591;PMS6003;32314;48.748;9.656;2023-04-03T04:03:16;1.00;1.00;1.00
46591;PMS6003;32314;48.748;9.656;2023-04-03T04:06:05;1.00;1.00;1.00
46591;PMS6003;32314;48.748;9.656;2023-04-03T04:08:51;0.00;0.00;0.00
46591;PMS6003;32314;48.748;9.656;2023-04-03T04:11:37;4.00;1.00;1.00
46591;PMS6003;32314;48.748;9.656;2023-04-03T04:14:25;1.00;1.00;1.00
46591;PMS6003;32314;48.748;9.656;2023-04-03T04:17:13;0.00;0.00;0.00
46591;PMS6003;32314;48.748;9.656;2023-04-03T04:19:59;4.00;1.00;1.00
46591;PMS6003;32314;48.748;9.656;2023-04-03T04:22:45;3.00;3.00;1.00
46591;PMS6003;32314;48.748;9.656;2023-04-03T04:25:31;4.25;0.50;0.00
46591;PMS6003;32314;48.748;9.656;2023-04-03T04:28:18;4.00;1.50;1.00
46591;PMS6003;32314;48.748;9.656;2023-04-03T04:31:06;0.50;0.50;0.00
46591;PMS6003;32314;48.748;9.656;2023-04-03T04:33:52;0.75;0.75;0.75
46591;PMS6003;32314;48.748;9.656;2023-04-03T04:36:38;2.00;2.00;1.00
46591;PMS6003;32314;48.748;9.656;2023-04-03T04:39:24;6.50;1.00;1.00
46591;PMS6003;32314;48.748;9.656;2023-04-03T04:42:12;1.00;1.00;0.00
46591;PMS6003;32314;48.748;9.656;2023-04-03T04:44:59;3.25;2.50;2.50
46591;PMS6003;32314;48.748;9.656;2023-04-03T04:47:45;7.00;3.00;1.00
46591;PMS6003;32314;48.748;9.656;2023-04-03T04:50:31;6.00;3.00;1.00
46591;PMS6003;32314;48.748;9.656;2023-04-03T04:53:17;1.00;1.00;1.00
46591;PMS6003;32314;48.748;9.656;2023-04-03T04:56:03;2.75;2.50;1.00
46591;PMS6003;32314;48.748;9.656;2023-04-03T04:58:51;3.75;3.75;3.00
46591;PMS6003;32314;48.748;9.656;2023-04-03T05:01:39;3.00;3.00;3.00
46591;PMS6003;32314;48.748;9.656;2023-04-03T05:04:29;2.00;2.00;1.00
46591;PMS6003;32314;48.748;9.656;2023-04-03T05:07:22;3.00;0.25;0.00
46591;PMS6003;32314;48.748;9.656;2023-04-03T05:10:08;1.00;1.00;1.00
46591;PMS6003;32314;48.748;9.656;2023-04-03T05:12:55;1.00;1.00;1.00
46591;PMS6003;32314;48.748;9.656;2023-04-03T05:15:41;3.00;3.00;3.00
46591;PMS6003;32314;48.748;9.656;2023-04-03T05:18:27;3.25;3.00;3.00
46591;PMS6003;32314;48.748;9.656;2023-04-03T05:21:16;1.00;1.00;1.00
46591;PMS6003;32314;48.748;9.656;2023-04-03T05:24:04;3.25;1.00;1.00
46591;PMS6003;32314;48.748;9.656;2023-04-03T05:26:52;1.00;1.00;1.00
46591;PMS6003;32314;48.748;9.656;2023-04-03T05:29:38;1.00;1.00;0.00
46591;PMS6003;32314;48.748;9.656;2023-04-03T05:32:25;0.75;0.75;0.75
46591;PMS6003;32314;48.748;9.656;2023-04-03T05:35:22;1.00;1.00;1.00
46591;PMS6003;32314;48.748;9.656;2023-04-03T05:38:11;0.00;0.00;0.00
46591;PMS6003;32314;48.748;9.656;2023-04-03T05:40:57;1.00;1.00;1.00
46591;PMS6003;32314;48.748;9.656;2023-04-03T05:43:43;1.00;1.00;1.00
46591;PMS6003;32314;48.748;9.656;2023-04-03T05:46:30;1.00;1.00;1.00
46591;PMS6003;32314;48.748;9.656;2023-04-03T05:49:20;3.00;3.00;1.00
46591;PMS6003;32314;48.748;9.656;2023-04-03T05:52:08;1.00;1.00;0.25
46591;PMS6003;32314;48.748;9.656;2023-04-03T05:55:09;1.00;1.00;1.00
46591;PMS6003;32314;48.748;9.656;2023-04-03T05:57:55;3.00;0.00;0.00
46591;PMS6003;32314;48.748;9.656;2023-04-03T06:00:42;4.00;2.00;1.00
46591;PMS6003;32314;48.748;9.656;2023-04-03T06:03:27;1.00;1.00;0.75
46591;PMS6003;32314;48.748;9.656;2023-04-03T06:06:14;1.00;1.00;1.00
46591;PMS6003;32314;48.748;9.656;2023-04-03T06:09:00;1.00;1.00;1.00
46591;PMS6003;32314;48.748;9.656;2023-04-03T06:11:47;1.00;1.00;1.00
46591;PMS6003;32314;48.748;9.656;2023-04-03T06:14:34;1.00;1.00;1.00
46591;PMS6003;32314;48.748;9.656;2023-04-03T06:17:21;0.75;0.00;0.00
46591;PMS6003;32314;48.748;9.656;2023-04-03T06:20:07;2.75;1.00;1.00
46591;PMS6003;32314;48.748;9.656;2023-04-03T06:22:53;4.00;1.00;1.00
46591;PMS6003;32314;48.748;9.656;2023-04-03T06:25:39;3.00;0.00;0.00
46591;PMS6003;32314;48.748;9.656;2023-04-03T06:28:26;1.00;1.00;1.00
46591;PMS6003;32314;48.748;9.656;2023-04-03T06:31:11;1.00;1.00;1.00
46591;PMS6003;32314;48.748;9.656;2023-04-03T06:33:57;1.00;1.00;1.00
46591;PMS6003;32314;48.748;9.656;2023-04-03T06:36:43;2.00;1.00;0.50
46591;PMS6003;32314;48.748;9.656;2023-04-03T06:39:30;1.00;1.00;1.00
46591;PMS6003;32314;48.748;9.656;2023-04-03T06:42:16;6.00;3.00;1.50
46591;PMS6003;32314;48.748;9.656;2023-04-03T06:45:11;3.00;0.25;0.25
46591;PMS6003;32314;48.748;9.656;2023-04-03T06:47:57;2.00;2.00;1.00
46591;PMS6003;32314;48.748;9.656;2023-04-03T06:50:43;1.00;1.00;1.00
46591;PMS6003;32314;48.748;9.656;2023-04-03T06:53:29;1.50;1.50;1.00
46591;PMS6003;32314;48.748;9.656;2023-04-03T06:56:15;1.00;1.00;0.75
46591;PMS6003;32314;48.748;9.656;2023-04-03T06:59:02;1.00;1.00;1.00
46591;PMS6003;32314;48.748;9.656;2023-04-03T07:01:48;0.50;0.50;0.50
46591;PMS6003;32314;48.748;9.656;2023-04-03T07:04:34;2.75;2.75;2.00
46591;PMS6003;32314;48.748;9.656;2023-04-03T07:07:20;3.00;0.50;0.50
46591;PMS6003;32314;48.748;9.656;2023-04-03T07:10:06;4.00;1.50;1.00
46591;PMS6003;32314;48.748;9.656;2023-04-03T07:12:52;1.00;1.00;0.25
46591;PMS6003;32314;48.748;9.656;2023-04-03T07:15:38;1.00;1.00;0.75
46591;PMS6003;32314;48.748;9.656;2023-04-03T07:18:24;5.50;2.00;2.00
46591;PMS6003;32314;48.748;9.656;2023-04-03T07:21:10;1.00;1.00;1.00
46591;PMS6003;32314;48.748;9.656;2023-04-03T07:23:55;3.25;1.00;1.00
46591;PMS6003;32314;48.748;9.656;2023-04-03T07:26:41;2.50;2.50;1.00
46591;PMS6003;32314;48.748;9.656;2023-04-03T07:29:27;7.00;3.00;2.00
46591;PMS6003;32314;48.748;9.656;2023-04-03T07:32:13;1.00;1.00;1.00
46591;PMS6003;32314;48.748;9.656;2023-04-03T07:34:59;3.00;3.00;3.00
46591;PMS6003;32314;48.748;9.656;2023-04-03T07:37:44;5.33;1.00;1.00
46591;PMS6003;32314;48.748;9.656;2023-04-03T07:40:31;4.00;1.67;1.00
46591;PMS6003;32314;48.748;9.656;2023-04-03T07:43:18;3.00;3.00;3.00
46591;PMS6003;32314;48.748;9.656;2023-04-03T07:46:05;0.00;0.00;0.00
46591;PMS6003;32314;48.748;9.656;2023-04-03T07:48:51;2.33;1.00;1.00
46591;PMS6003;32314;48.748;9.656;2023-04-03T07:51:37;4.00;4.00;2.33
46591;PMS6003;32314;48.748;9.656;2023-04-03T07:54:22;2.33;2.33;2.33
46591;PMS6003;32314;48.748;9.656;2023-04-03T07:57:08;1.00;1.00;1.00
46591;PMS6003;32314;48.748;9.656;2023-04-03T07:59:54;1.00;1.00;1.00
46591;PMS6003;32314;48.748;9.656;2023-04-03T08:02:40;0.67;0.67;0.67
46591;PMS6003;32314;48.748;9.656;2023-04-03T08:05:26;3.00;0.67;0.00
46591;PMS6003;32314;48.748;9.656;2023-04-03T08:08:13;0.33;0.33;0.33
46591;PMS6003;32314;48.748;9.656;2023-04-03T08:11:06;3.00;3.00;3.00
46591;PMS6003;32314;48.748;9.656;2023-04-03T08:13:53;9.33;3.67;3.00
46591;PMS6003;32314;48.748;9.656;2023-04-03T08:16:39;1.00;1.00;1.00
46591;PMS6003;32314;48.748;9.656;2023-04-03T08:19:25;4.67;4.67;3.33
46591;PMS6003;32314;48.748;9.656;2023-04-03T08:22:11;3.67;3.67;3.33
46591;PMS6003;32314;48.748;9.656;2023-04-03T08:24:57;3.33;3.33;3.00
46591;PMS6003;32314;48.748;9.656;2023-04-03T08:27:43;3.00;3.00;3.00
46591;PMS6003;32314;48.748;9.656;2023-04-03T08:30:29;3.00;3.00;3.00
46591;PMS6003;32314;48.748;9.656;2023-04-03T08:33:15;3.00;3.00;2.33
46591;PMS6003;32314;48.748;9.656;2023-04-03T08:36:01;3.00;3.00;1.00
46591;PMS6003;32314;48.748;9.656;2023-04-03T08:38:48;3.33;3.33;1.67
46591;PMS6003;32314;48.748;9.656;2023-04-03T08:41:35;5.00;2.67;1.67
46591;PMS6003;32314;48.748;9.656;2023-04-03T08:44:25;3.00;3.00;3.00
46591;PMS6003;32314;48.748;9.656;2023-04-03T08:50:11;3.00;0.00;0.00
46591;PMS6003;32314;48.748;9.656;2023-04-03T08:53:00;3.00;3.00;3.00
46591;PMS6003;32314;48.748;9.656;2023-04-03T08:55:50;7.00;4.67;3.33
46591;PMS6003;32314;48.748;9.656;2023-04-03T08:58:41;4.00;1.67;1.00
46591;PMS6003;32314;48.748;9.656;2023-04-03T09:01:36;3.00;3.00;3.00
46591;PMS6003;32314;48.748;9.656;2023-04-03T09:04:23;3.00;1.67;1.67
46591;PMS6003;32314;48.748;9.656;2023-04-03T09:07:17;6.00;3.33;2.33
46591;PMS6003;32314;48.748;9.656;2023-04-03T09:10:10;2.33;2.33;2.33
46591;PMS6003;32314;48.748;9.656;2023-04-03T09:12:59;3.00;3.00;3.00
46591;PMS6003;32314;48.748;9.656;2023-04-03T09:15:49;6.00;1.00;1.00
46591;PMS6003;32314;48.748;9.656;2023-04-03T09:18:36;6.00;4.00;3.00
46591;PMS6003;32314;48.748;9.656;2023-04-03T09:21:29;8.33;7.33;6.67
46591;PMS6003;32314;48.748;9.656;2023-04-03T09:24:18;6.67;6.67;6.67
46591;PMS6003;32314;48.748;9.656;2023-04-03T09:27:04;4.00;4.00;4.00
46591;PMS6003;32314;48.748;9.656;2023-04-03T09:29:56;6.00;6.00;6.00
46591;PMS6003;32314;48.748;9.656;2023-04-03T09:32:47;3.33;3.33;3.33
46591;PMS6003;32314;48.748;9.656;2023-04-03T09:35:35;3.00;3.00;3.00
46591;PMS6003;32314;48.748;9.656;2023-04-03T09:38:22;3.00;3.00;3.00
46591;PMS6003;32314;48.748;9.656;2023-04-03T09:41:16;4.00;4.00;3.67
46591;PMS6003;32314;48.748;9.656;2023-04-03T09:44:04;3.33;3.33;3.33
46591;PMS6003;32314;48.748;9.656;2023-04-03T09:47:25;6.33;3.67;3.67
46591;PMS6003;32314;48.748;9.656;2023-04-03T09:53:04;6.33;6.33;5.67
46591;PMS6003;32314;48.748;9.656;2023-04-03T09:55:53;7.67;7.67;7.67
46591;PMS6003;32314;48.748;9.656;2023-04-03T09:58:39;6.50;6.50;6.25
46591;PMS6003;32314;48.748;9.656;2023-04-03T10:04:17;4.00;4.00;4.00
46591;PMS6003;32314;48.748;9.656;2023-04-03T10:07:05;1.00;1.00;0.67
46591;PMS6003;32314;48.748;9.656;2023-04-03T10:10:23;4.00;4.00;3.67
46591;PMS6003;32314;48.748;9.656;2023-04-03T10:13:14;4.00;4.00;4.00
46591;PMS6003;32314;48.748;9.656;2023-04-03T10:16:12;6.00;3.00;3.00
46591;PMS6003;32314;48.748;9.656;2023-04-03T10:19:12;3.00;3.00;3.00
46591;PMS6003;32314;48.748;9.656;2023-04-03T10:22:29;1.00;1.00;1.00
46591;PMS6003;32314;48.748;9.656;2023-04-03T10:25:15;4.00;0.67;0.00
46591;PMS6003;32314;48.748;9.656;2023-04-03T10:28:15;0.67;0.67;0.00
46591;PMS6003;32314;48.748;9.656;2023-04-03T10:34:19;0.00;0.00;0.00
46591;PMS6003;32314;48.748;9.656;2023-04-03T10:37:20;0.00;0.00;0.00
46591;PMS6003;32314;48.748;9.656;2023-04-03T10:46:07;1.00;1.00;1.00
46591;PMS6003;32314;48.748;9.656;2023-04-03T10:49:10;2.33;2.33;1.00
46591;PMS6003;32314;48.748;9.656;2023-04-03T10:52:13;1.67;1.67;1.00
46591;PMS6003;32314;48.748;9.656;2023-04-03T10:58:24;3.00;3.00;3.00
46591;PMS6003;32314;48.748;9.656;2023-04-03T11:01:16;4.67;2.33;2.33
46591;PMS6003;32314;48.748;9.656;2023-04-03T11:04:05;1.00;1.00;1.00
46591;PMS6003;32314;48.748;9.656;2023-04-03T11:09:58;2.33;1.00;0.67
46591;PMS6003;32314;48.748;9.656;2023-04-03T11:12:49;3.00;3.00;1.67
46591;PMS6003;32314;48.748;9.656;2023-04-03T11:15:38;1.00;1.00;1.00
46591;PMS6003;32314;48.748;9.656;2023-04-03T11:18:35;1.00;1.00;1.00
46591;PMS6003;32314;48.748;9.656;2023-04-03T11:21:29;1.00;1.00;1.00
46591;PMS6003;32314;48.748;9.656;2023-04-03T11:24:25;0.00;0.00;0.00
46591;PMS6003;32314;48.748;9.656;2023-04-03T11:27:15;0.00;0.00;0.00
46591;PMS6003;32314;48.748;9.656;2023-04-03T11:30:09;1.00;1.00;1.00
46591;PMS6003;32314;48.748;9.656;2023-04-03T11:36:23;0.00;0.00;0.00
46591;PMS6003;32314;48.748;9.656;2023-04-03T11:39:21;0.00;0.00;0.00
46591;PMS6003;32314;48.748;9.656;2023-04-03T11:54:34;2.00;0.00;0.00
46591;PMS6003;32314;48.748;9.656;2023-04-03T11:57:43;1.00;1.00;0.00
46591;PMS6003;32314;48.748;9.656;2023-04-03T12:00:48;1.00;1.00;1.00
46591;PMS6003;32314;48.748;9.656;2023-04-03T12:09:30;1.00;1.00;0.67
46591;PMS6003;32314;48.748;9.656;2023-04-03T12:27:16;0.67;0.67;0.00
46591;PMS6003;32314;48.748;9.656;2023-04-03T12:32:58;1.00;1.00;0.33
46591;PMS6003;32314;48.748;9.656;2023-04-03T12:35:57;1.00;1.00;1.00
46591;PMS6003;32314;48.748;9.656;2023-04-03T12:38:58;0.00;0.00;0.00
46591;PMS6003;32314;48.748;9.656;2023-04-03T12:45:21;6.00;3.00;3.00
46591;PMS6003;32314;48.748;9.656;2023-04-03T12:48:15;1.00;1.00;1.00
46591;PMS6003;32314;48.748;9.656;2023-04-03T12:51:03;4.00;1.00;1.00
46591;PMS6003;32314;48.748;9.656;2023-04-03T12:53:49;3.00;3.00;3.00
46591;PMS6003;32314;48.748;9.656;2023-04-03T12:56:37;1.00;1.00;1.00
46591;PMS6003;32314;48.748;9.656;2023-04-03T12:59:24;1.00;1.00;1.00
46591;PMS6003;32314;48.748;9.656;2023-04-03T13:02:31;1.67;1.67;1.00
46591;PMS6003;32314;48.748;9.656;2023-04-03T13:05:19;0.00;0.00;0.00
46591;PMS6003;32314;48.748;9.656;2023-04-03T13:08:09;0.00;0.00;0.00
46591;PMS6003;32314;48.748;9.656;2023-04-03T13:10:58;0.33;0.33;0.00
46591;PMS6003;32314;48.748;9.656;2023-04-03T13:13:54;3.00;1.00;1.00
46591;PMS6003;32314;48.748;9.656;2023-04-03T13:16:56;0.00;0.00;0.00
46591;PMS6003;32314;48.748;9.656;2023-04-03T13:19:44;1.00;1.00;0.00
46591;PMS6003;32314;48.748;9.656;2023-04-03T13:22:34;1.00;1.00;0.67
46591;PMS6003;32314;48.748;9.656;2023-04-03T13:25:25;2.33;2.33;0.67
46591;PMS6003;32314;48.748;9.656;2023-04-03T13:28:15;1.00;1.00;1.00
46591;PMS6003;32314;48.748;9.656;2023-04-03T13:34:03;3.00;3.00;1.00
46591;PMS6003;32314;48.748;9.656;2023-04-03T13:36:56;1.00;1.00;0.67
46591;PMS6003;32314;48.748;9.656;2023-04-03T13:39:44;0.33;0.33;0.33
46591;PMS6003;32314;48.748;9.656;2023-04-03T13:42:31;3.00;3.00;1.67
46591;PMS6003;32314;48.748;9.656;2023-04-03T13:45:21;1.00;1.00;1.00
46591;PMS6003;32314;48.748;9.656;2023-04-03T13:48:11;1.00;1.00;1.00
46591;PMS6003;32314;48.748;9.656;2023-04-03T13:51:07;4.00;1.00;1.00
46591;PMS6003;32314;48.748;9.656;2023-04-03T13:54:18;0.00;0.00;0.00
46591;PMS6003;32314;48.748;9.656;2023-04-03T13:57:14;3.33;1.00;0.33
46591;PMS6003;32314;48.748;9.656;2023-04-03T14:00:18;1.00;1.00;1.00
46591;PMS6003;32314;48.748;9.656;2023-04-03T14:06:19;3.67;1.00;1.00
46591;PMS6003;32314;48.748;9.656;2023-04-03T14:09:06;1.00;1.00;1.00
46591;PMS6003;32314;48.748;9.656;2023-04-03T14:11:53;0.00;0.00;0.00
46591;PMS6003;32314;48.748;9.656;2023-04-03T14:14:40;1.00;1.00;1.00
46591;PMS6003;32314;48.748;9.656;2023-04-03T14:17:26;0.00;0.00;0.00
46591;PMS6003;32314;48.748;9.656;2023-04-03T14:20:16;1.00;1.00;1.00
46591;PMS6003;32314;48.748;9.656;2023-04-03T14:23:03;0.33;0.33;0.33
46591;PMS6003;32314;48.748;9.656;2023-04-03T14:25:48;1.00;1.00;1.00
46591;PMS6003;32314;48.748;9.656;2023-04-03T14:28:35;1.00;1.00;1.00
46591;PMS6003;32314;48.748;9.656;2023-04-03T14:31:21;1.00;1.00;1.00
46591;PMS6003;32314;48.748;9.656;2023-04-03T14:34:08;1.00;1.00;1.00
46591;PMS6003;32314;48.748;9.656;2023-04-03T14:36:55;1.00;1.00;0.33
46591;PMS6003;32314;48.748;9.656;2023-04-03T14:39:42;1.00;1.00;1.00
46591;PMS6003;32314;48.748;9.656;2023-04-03T14:42:29;1.00;1.00;1.00
46591;PMS6003;32314;48.748;9.656;2023-04-03T14:45:17;1.00;1.00;1.00
46591;PMS6003;32314;48.748;9.656;2023-04-03T14:48:04;3.33;3.00;3.00
46591;PMS6003;32314;48.748;9.656;2023-04-03T14:50:51;3.00;0.33;0.33
46591;PMS6003;32314;48.748;9.656;2023-04-03T14:53:38;1.00;1.00;1.00
46591;PMS6003;32314;48.748;9.656;2023-04-03T14:56:26;4.00;1.67;1.00
46591;PMS6003;32314;48.748;9.656;2023-04-03T14:59:13;1.00;1.00;0.00
46591;PMS6003;32314;48.748;9.656;2023-04-03T15:02:00;1.00;1.00;1.00
46591;PMS6003;32314;48.748;9.656;2023-04-03T15:04:46;0.67;0.67;0.67
46591;PMS6003;32314;48.748;9.656;2023-04-03T15:07:33;2.33;2.33;2.33
46591;PMS6003;32314;48.748;9.656;2023-04-03T15:10:22;1.00;1.00;1.00
46591;PMS6003;32314;48.748;9.656;2023-04-03T15:13:10;0.67;0.67;0.00
46591;PMS6003;32314;48.748;9.656;2023-04-03T15:15:57;0.00;0.00;0.00
46591;PMS6003;32314;48.748;9.656;2023-04-03T15:18:43;2.33;2.33;1.00
46591;PMS6003;32314;48.748;9.656;2023-04-03T15:21:29;3.00;3.00;3.00
46591;PMS6003;32314;48.748;9.656;2023-04-03T15:24:15;1.00;1.00;1.00
46591;PMS6003;32314;48.748;9.656;2023-04-03T15:27:01;2.33;1.00;1.00
46591;PMS6003;32314;48.748;9.656;2023-04-03T15:29:47;0.67;0.67;0.67
46591;PMS6003;32314;48.748;9.656;2023-04-03T15:32:32;0.33;0.33;0.33
46591;PMS6003;32314;48.748;9.656;2023-04-03T15:35:19;3.00;0.00;0.00
46591;PMS6003;32314;48.748;9.656;2023-04-03T15:38:05;1.67;1.67;1.00
46591;PMS6003;32314;48.748;9.656;2023-04-03T15:40:51;5.33;3.00;3.00
46591;PMS6003;32314;48.748;9.656;2023-04-03T15:43:37;3.00;3.00;3.00
46591;PMS6003;32314;48.748;9.656;2023-04-03T15:46:23;3.00;1.67;1.00
46591;PMS6003;32314;48.748;9.656;2023-04-03T15:49:09;1.00;1.00;0.67
46591;PMS6003;32314;48.748;9.656;2023-04-03T15:51:55;1.67;1.67;1.00
46591;PMS6003;32314;48.748;9.656;2023-04-03T15:54:40;2.00;1.00;1.00
46591;PMS6003;32314;48.748;9.656;2023-04-03T15:57:26;1.00;1.00;1.00
46591;PMS6003;32314;48.748;9.656;2023-04-03T16:00:12;1.00;1.00;1.00
46591;PMS6003;32314;48.748;9.656;2023-04-03T16:02:59;0.67;0.67;0.33
46591;PMS6003;32314;48.748;9.656;2023-04-03T16:05:49;0.00;0.00;0.00
46591;PMS6003;32314;48.748;9.656;2023-04-03T16:08:36;0.00;0.00;0.00
46591;PMS6003;32314;48.748;9.656;2023-04-03T16:11:22;3.00;0.67;0.67
46591;PMS6003;32314;48.748;9.656;2023-04-03T16:14:08;0.00;0.00;0.00
46591;PMS6003;32314;48.748;9.656;2023-04-03T16:16:54;3.67;0.67;0.67
46591;PMS6003;32314;48.748;9.656;2023-04-03T16:19:40;3.67;1.00;0.67
46591;PMS6003;32314;48.748;9.656;2023-04-03T16:22:27;0.67;0.67;0.33
46591;PMS6003;32314;48.748;9.656;2023-04-03T16:25:14;0.33;0.33;0.00
46591;PMS6003;32314;48.748;9.656;2023-04-03T16:28:00;3.33;1.00;1.00
46591;PMS6003;32314;48.748;9.656;2023-04-03T16:30:46;1.00;1.00;1.00
46591;PMS6003;32314;48.748;9.656;2023-04-03T16:33:33;4.00;2.33;1.00
46591;PMS6003;32314;48.748;9.656;2023-04-03T16:36:23;1.00;1.00;1.00
46591;PMS6003;32314;48.748;9.656;2023-04-03T16:39:11;3.00;0.00;0.00
46591;PMS6003;32314;48.748;9.656;2023-04-03T16:41:57;3.00;1.00;1.00
46591;PMS6003;32314;48.748;9.656;2023-04-03T16:44:43;3.33;3.33;2.33
46591;PMS6003;32314;48.748;9.656;2023-04-03T16:47:31;0.00;0.00;0.00
46591;PMS6003;32314;48.748;9.656;2023-04-03T16:50:17;1.00;1.00;1.00
46591;PMS6003;32314;48.748;9.656;2023-04-03T16:53:03;0.00;0.00;0.00
46591;PMS6003;32314;48.748;9.656;2023-04-03T16:55:49;3.00;3.00;3.00
46591;PMS6003;32314;48.748;9.656;2023-04-03T16:58:35;3.33;1.00;1.00
46591;PMS6003;32314;48.748;9.656;2023-04-03T17:01:24;3.00;3.00;3.00
46591;PMS6003;32314;48.748;9.656;2023-04-03T17:04:12;1.00;1.00;1.00
46591;PMS6003;32314;48.748;9.656;2023-04-03T17:06:58;3.00;0.67;0.67
46591;PMS6003;32314;48.748;9.656;2023-04-03T17:09:45;3.00;3.00;1.67
46591;PMS6003;32314;48.748;9.656;2023-04-03T17:12:31;3.00;3.00;1.00
46591;PMS6003;32314;48.748;9.656;2023-04-03T17:15:17;3.33;3.33;2.67
46591;PMS6003;32314;48.748;9.656;2023-04-03T17:18:05;13.00;13.00;13.00
46591;PMS6003;32314;48.748;9.656;2023-04-03T17:20:52;23.50;23.50;23.50
46591;PMS6003;32314;48.748;9.656;2023-04-03T17:23:38;41.75;40.50;35.50
46591;PMS6003;32314;48.748;9.656;2023-04-03T17:26:25;35.25;35.25;32.50
46591;PMS6003;32314;48.748;9.656;2023-04-03T17:29:11;29.50;25.75;24.25
46591;PMS6003;32314;48.748;9.656;2023-04-03T17:31:57;15.75;14.75;13.00
46591;PMS6003;32314;48.748;9.656;2023-04-03T17:34:47;7.25;6.75;6.25
46591;PMS6003;32314;48.748;9.656;2023-04-03T17:37:33;3.25;3.25;3.25
46591;PMS6003;32314;48.748;9.656;2023-04-03T17:40:18;6.00;4.00;3.00